Time;durP1;ratioP1;P1;durP2;ratioP2;P2;SDS_P1;SDS_P2;PMS_P1;PMS_P2;Temp;Humidity;BMP_temperature;BMP_pressure;BME280_temperature;BME280_humidity;BME280_pressure;Samples;Min_cycle;Max_cycle;Signal;HPM_P1;HPM_P2
2023/03/22 00:07:01;;;;;;;0.20;0.00;;;11.80;99.90;;;;;;21153263;27;20442;-67
2023/03/22 00:17:05;;;;;;;0.20;0.03;;;11.80;99.90;;;;;;21234047;27;20868;-67
2023/03/22 00:27:11;;;;;;;0.20;0.10;;;11.70;99.90;;;;;;21233151;27;20450;-69
2023/03/22 00:37:16;;;;;;;0.20;0.10;;;11.40;99.90;;;;;;21233758;27;20419;-68
2023/03/22 00:47:22;;;;;;;0.20;0.00;;;11.30;99.90;;;;;;21167127;27;20392;-69
2023/03/22 00:57:25;;;;;;;0.20;0.10;;;11.90;99.90;;;;;;21129331;28;20505;-68
2023/03/22 01:07:30;;;;;;;0.20;0.00;;;11.50;99.90;;;;;;21155233;28;20452;-69
2023/03/22 01:17:34;;;;;;;0.20;0.00;;;11.30;99.90;;;;;;21230073;28;20494;-69
2023/03/22 01:27:40;;;;;;;0.20;0.00;;;10.80;99.90;;;;;;21209383;27;20386;-69
2023/03/22 01:37:44;;;;;;;0.20;0.10;;;10.50;99.90;;;;;;21231954;27;20443;-68
2023/03/22 01:47:54;;;;;;;0.20;0.10;;;10.80;99.90;;;;;;21196280;27;20407;-69
2023/03/22 01:57:58;;;;;;;0.20;0.10;;;10.80;99.90;;;;;;21142697;28;20403;-69
2023/03/22 02:08:04;;;;;;;0.20;0.03;;;11.10;99.90;;;;;;21172496;27;20891;-69
2023/03/22 02:18:21;;;;;;;0.20;0.10;;;11.80;99.90;;;;;;21244402;27;20417;-69
2023/03/22 02:28:35;;;;;;;0.20;0.00;;;11.90;99.90;;;;;;21243666;27;20447;-68
2023/03/22 02:39:20;;;;;;;0.20;0.10;;;10.50;99.90;;;;;;21224393;27;20397;-68
2023/03/22 02:49:33;;;;;;;0.20;0.00;;;10.30;99.90;;;;;;21170425;27;20409;-68
2023/03/22 02:59:40;;;;;;;0.20;0.05;;;10.30;99.90;;;;;;21137516;28;20410;-68
2023/03/22 03:09:44;;;;;;;0.20;0.10;;;10.50;99.90;;;;;;21182174;27;20446;-68
2023/03/22 03:19:57;;;;;;;0.20;0.10;;;10.00;99.90;;;;;;21234389;27;20401;-69
2023/03/22 03:30:07;;;;;;;0.20;0.10;;;9.70;99.90;;;;;;21238879;27;20477;-70
2023/03/22 03:40:16;;;;;;;0.20;0.00;;;9.60;99.90;;;;;;21219316;27;20469;-69
2023/03/22 03:50:20;;;;;;;0.20;0.10;;;9.30;99.90;;;;;;21161623;27;20402;-69
2023/03/22 04:00:25;;;;;;;0.20;0.00;;;9.10;99.90;;;;;;21228797;27;21008;-68
2023/03/22 04:10:29;;;;;;;0.20;0.10;;;9.40;99.90;;;;;;21235453;27;20401;-68
2023/03/22 04:20:34;;;;;;;0.20;0.10;;;9.20;99.90;;;;;;21234742;27;20412;-69
2023/03/22 04:30:38;;;;;;;0.20;0.03;;;9.30;99.90;;;;;;21227520;27;20395;-68
2023/03/22 04:40:45;;;;;;;0.20;0.10;;;9.50;99.90;;;;;;21205615;27;20523;-68
2023/03/22 04:50:52;;;;;;;0.20;0.10;;;9.40;99.90;;;;;;21156677;27;20398;-68
2023/03/22 05:00:57;;;;;;;0.20;0.00;;;8.90;99.90;;;;;;21127661;28;20487;-69
2023/03/22 05:11:06;;;;;;;0.20;0.10;;;9.00;99.90;;;;;;21183778;28;20958;-68
2023/03/22 05:21:14;;;;;;;0.20;0.00;;;9.10;99.90;;;;;;21241688;27;20424;-68
2023/03/22 05:31:20;;;;;;;0.20;0.00;;;9.40;99.90;;;;;;21247417;27;20462;-68
2023/03/22 05:41:25;;;;;;;0.20;0.10;;;9.30;99.90;;;;;;21228441;27;20409;-68
2023/03/22 05:51:29;;;;;;;0.20;0.10;;;9.60;99.90;;;;;;21167396;27;20398;-69
2023/03/22 06:01:34;;;;;;;0.20;0.10;;;9.70;99.90;;;;;;21159587;28;20467;-69
2023/03/22 06:11:38;;;;;;;0.20;0.00;;;9.50;99.90;;;;;;21219703;27;20413;-70
2023/03/22 06:21:43;;;;;;;0.20;0.03;;;9.30;99.90;;;;;;21219451;27;20412;-68
2023/03/22 06:31:47;;;;;;;0.20;0.00;;;9.30;99.90;;;;;;21222797;27;20420;-68
2023/03/22 06:41:52;;;;;;;0.20;0.07;;;9.70;99.90;;;;;;21240639;27;20408;-69
2023/03/22 06:51:56;;;;;;;0.20;0.10;;;10.20;99.90;;;;;;21134422;28;20513;-69
2023/03/22 07:02:01;;;;;;;0.20;0.07;;;10.50;99.90;;;;;;21148485;28;20406;-70
2023/03/22 07:12:05;;;;;;;0.20;0.00;;;11.50;99.90;;;;;;21216206;27;20457;-68
2023/03/22 07:22:11;;;;;;;0.20;0.00;;;12.10;99.90;;;;;;21218417;27;20432;-70
2023/03/22 07:32:15;;;;;;;0.20;0.10;;;12.60;99.90;;;;;;21232151;27;20748;-69
2023/03/22 07:42:20;;;;;;;0.20;0.08;;;13.20;99.90;;;;;;21214123;27;20418;-69
2023/03/22 07:52:24;;;;;;;0.20;0.00;;;13.70;99.90;;;;;;21212919;27;20401;-69
2023/03/22 08:02:29;;;;;;;0.20;0.07;;;13.90;99.90;;;;;;21170027;27;20408;-71
2023/03/22 08:12:33;;;;;;;0.20;0.10;;;14.10;99.90;;;;;;21185264;27;20964;-69
2023/03/22 08:22:38;;;;;;;0.20;0.10;;;14.10;99.90;;;;;;21168306;27;20413;-70
2023/03/22 08:32:42;;;;;;;0.20;0.00;;;14.40;99.90;;;;;;21168672;27;20734;-69
2023/03/22 08:42:47;;;;;;;0.20;0.10;;;14.70;99.90;;;;;;21170049;27;20467;-69
2023/03/22 08:52:52;;;;;;;0.20;0.10;;;15.20;99.90;;;;;;21166584;27;20393;-71
2023/03/22 09:02:57;;;;;;;0.20;0.10;;;15.80;99.90;;;;;;21184232;27;20738;-68
2023/03/22 09:13:01;;;;;;;0.20;0.00;;;15.80;99.90;;;;;;21167295;27;20752;-68
2023/03/22 09:23:06;;;;;;;0.20;0.07;;;16.00;99.90;;;;;;21181113;27;20413;-69
2023/03/22 09:33:10;;;;;;;0.20;0.10;;;16.00;99.90;;;;;;21165570;27;20394;-68
2023/03/22 09:43:16;;;;;;;0.20;0.10;;;16.20;99.90;;;;;;21152980;27;20427;-69
2023/03/22 09:53:23;;;;;;;0.20;0.10;;;16.30;99.90;;;;;;21226583;27;20404;-70
2023/03/22 10:04:07;;;;;;;0.20;0.10;;;16.10;99.90;;;;;;21214546;27;20396;-69
2023/03/22 10:14:24;;;;;;;0.20;0.10;;;16.80;99.90;;;;;;21175178;27;20400;-71
2023/03/22 10:24:32;;;;;;;0.20;0.10;;;17.20;99.90;;;;;;21216150;27;20397;-69
2023/03/22 10:34:36;;;;;;;0.20;0.10;;;17.00;99.90;;;;;;21215844;27;20487;-73
2023/03/22 10:44:48;;;;;;;0.20;0.00;;;17.20;99.90;;;;;;21195693;27;20417;-67
2023/03/22 10:54:52;;;;;;;0.20;0.10;;;16.80;99.90;;;;;;21140529;27;20447;-69
2023/03/22 11:05:00;;;;;;;0.20;0.10;;;17.50;99.90;;;;;;21152108;27;20468;-71
2023/03/22 11:15:05;;;;;;;0.80;0.80;;;17.60;99.90;;;;;;21205305;27;20764;-68
2023/03/22 11:25:15;;;;;;;0.20;0.03;;;18.20;99.90;;;;;;21150009;28;20492;-73
2023/03/22 11:35:22;;;;;;;0.20;0.10;;;18.70;99.90;;;;;;21121172;27;20389;-69
2023/03/22 11:45:31;;;;;;;0.20;0.00;;;18.60;99.90;;;;;;21205913;27;20933;-68
2023/03/22 11:55:36;;;;;;;0.20;0.00;;;18.90;99.90;;;;;;21129751;28;20765;-67
2023/03/22 12:05:44;;;;;;;0.20;0.10;;;19.60;99.90;;;;;;21122105;27;20434;-68
2023/03/22 12:15:52;;;;;;;0.20;0.10;;;19.70;99.90;;;;;;21213442;27;20405;-72
2023/03/22 12:26:01;;;;;;;0.20;0.00;;;19.80;99.90;;;;;;21231795;27;20477;-68
2023/03/22 12:36:07;;;;;;;0.20;0.03;;;19.80;99.90;;;;;;21231730;27;20420;-70
2023/03/22 12:46:19;;;;;;;0.20;0.00;;;20.30;99.90;;;;;;21172485;27;20449;-69
2023/03/22 12:56:27;;;;;;;0.20;0.10;;;20.30;99.90;;;;;;21142007;28;20407;-70
2023/03/22 13:06:55;;;;;;;0.20;0.08;;;19.90;99.90;;;;;;21161545;28;20483;-71
2023/03/22 13:17:00;;;;;;;0.20;0.10;;;20.50;99.90;;;;;;21209649;27;20420;-71
2023/03/22 13:27:10;;;;;;;0.20;0.10;;;20.50;99.90;;;;;;21228647;28;20431;-69
2023/03/22 13:37:29;;;;;;;0.20;0.00;;;21.10;99.90;;;;;;21230042;27;20429;-68
2023/03/22 13:47:37;;;;;;;0.20;0.05;;;21.40;99.90;;;;;;21192634;27;20402;-69
2023/03/22 13:57:49;;;;;;;0.20;0.00;;;21.90;99.90;;;;;;21156970;28;20505;-70
2023/03/22 14:07:58;;;;;;;0.20;0.00;;;22.90;99.90;;;;;;21186115;27;20404;-70
2023/03/22 16:09:25;;;;;;;0.20;0.10;;;21.30;99.90;;;;;;21245114;27;20409;-69
2023/03/22 16:19:28;;;;;;;0.20;0.00;;;20.60;99.90;;;;;;21191557;27;20485;-69
2023/03/22 16:29:32;;;;;;;0.20;0.10;;;19.10;99.90;;;;;;21230446;27;20405;-67
2023/03/22 16:39:39;;;;;;;0.20;0.10;;;18.00;99.90;;;;;;21164150;27;20507;-69
2023/03/22 16:49:44;;;;;;;0.20;0.07;;;17.20;99.90;;;;;;21205721;27;20864;-70
2023/03/22 16:59:47;;;;;;;0.20;0.10;;;17.10;99.90;;;;;;21108157;28;20946;-64
2023/03/22 17:09:51;;;;;;;0.20;0.10;;;17.10;99.90;;;;;;21126326;27;20401;-69
2023/03/22 17:19:55;;;;;;;0.20;0.10;;;16.90;99.90;;;;;;21170363;28;21018;-70
2023/03/22 17:29:59;;;;;;;0.20;0.10;;;16.40;99.90;;;;;;21271457;27;20483;-71
2023/03/22 17:40:01;;;;;;;0.20;0.10;;;16.20;99.90;;;;;;21301283;27;20411;-70
2023/03/22 17:50:06;;;;;;;0.20;0.10;;;15.90;99.90;;;;;;21272106;27;20440;-71
2023/03/22 18:00:10;;;;;;;0.20;0.00;;;15.90;99.90;;;;;;21288592;27;20902;-71
2023/03/22 18:10:15;;;;;;;0.20;0.10;;;15.60;99.90;;;;;;21221381;27;20430;-72
2023/03/22 18:20:19;;;;;;;0.20;0.10;;;15.60;99.90;;;;;;21269203;27;20442;-71
2023/03/22 18:30:26;;;;;;;0.20;0.03;;;15.60;99.90;;;;;;21269611;27;20784;-71
2023/03/22 18:40:28;;;;;;;0.20;0.10;;;15.50;99.90;;;;;;21280389;27;20460;-71
2023/03/22 18:50:32;;;;;;;0.20;0.00;;;15.40;99.90;;;;;;21226479;27;20741;-64
2023/03/22 19:00:35;;;;;;;0.20;0.10;;;15.40;99.90;;;;;;21265084;27;20411;-71
2023/03/22 19:10:39;;;;;;;0.20;0.10;;;15.40;99.90;;;;;;21298874;27;20490;-72
2023/03/22 19:20:42;;;;;;;0.20;0.00;;;15.30;99.90;;;;;;21281609;27;20411;-71
2023/03/22 19:30:47;;;;;;;0.20;0.00;;;15.10;99.90;;;;;;21297394;27;20728;-70
2023/03/22 19:40:49;;;;;;;0.20;0.10;;;15.00;99.90;;;;;;21311611;27;20873;-72
2023/03/22 19:50:55;;;;;;;0.20;0.00;;;14.90;99.90;;;;;;21296398;27;20394;-71
2023/03/22 20:00:58;;;;;;;0.20;0.00;;;14.60;99.90;;;;;;21295985;27;20427;-72
2023/03/22 20:11:02;;;;;;;0.20;0.00;;;14.40;99.90;;;;;;21295227;27;20411;-70
2023/03/22 20:21:06;;;;;;;0.20;0.10;;;14.20;99.90;;;;;;21294076;27;20764;-71
2023/03/22 20:31:11;;;;;;;0.20;0.10;;;14.30;99.90;;;;;;21291313;27;20411;-68
2023/03/22 20:41:14;;;;;;;0.20;0.10;;;14.10;99.90;;;;;;21249015;27;20403;-73
2023/03/22 20:51:19;;;;;;;0.20;0.00;;;13.90;99.90;;;;;;21274398;27;20886;-70
2023/03/22 21:01:21;;;;;;;0.20;0.00;;;13.90;99.90;;;;;;21292295;27;20414;-69
2023/03/22 21:11:25;;;;;;;0.20;0.10;;;14.00;99.90;;;;;;21279016;27;20391;-70
2023/03/22 21:21:28;;;;;;;0.20;0.10;;;14.00;99.90;;;;;;21267022;27;20400;-69
2023/03/22 21:31:32;;;;;;;0.20;0.03;;;13.90;99.90;;;;;;21289738;27;20483;-70
2023/03/22 21:41:36;;;;;;;0.20;0.10;;;13.60;99.90;;;;;;21267927;27;20404;-69
2023/03/22 21:51:40;;;;;;;0.20;0.10;;;13.40;99.90;;;;;;21187812;28;20401;-69
2023/03/22 22:01:46;;;;;;;0.20;0.10;;;13.30;99.90;;;;;;21216980;27;20411;-69
2023/03/22 22:11:50;;;;;;;0.20;0.10;;;13.20;99.90;;;;;;21286655;27;20973;-70
2023/03/22 22:21:52;;;;;;;0.20;0.00;;;13.00;99.90;;;;;;21292603;27;20403;-71
2023/03/22 22:31:56;;;;;;;0.20;0.10;;;12.90;99.90;;;;;;21286736;27;20415;-71
2023/03/22 22:41:59;;;;;;;0.20;0.10;;;12.90;99.90;;;;;;21222689;27;20761;-71
2023/03/22 22:52:06;;;;;;;0.20;0.00;;;12.70;99.90;;;;;;21204043;27;20387;-72
2023/03/22 23:02:09;;;;;;;0.20;0.10;;;12.40;99.90;;;;;;21220792;27;20405;-71
2023/03/22 23:12:14;;;;;;;0.20;0.10;;;12.20;99.90;;;;;;21229101;27;20482;-71
2023/03/22 23:22:21;;;;;;;0.20;0.10;;;12.10;99.90;;;;;;21304691;27;20411;-71
2023/03/22 23:32:26;;;;;;;0.20;0.10;;;11.90;99.90;;;;;;21278131;27;20383;-70
2023/03/22 23:42:29;;;;;;;0.20;0.10;;;11.90;99.90;;;;;;21281359;27;20981;-71
2023/03/22 23:52:33;;;;;;;0.20;0.00;;;11.70;99.90;;;;;;21298756;27;20400;-69
